createdAt,value
2023-03-20T00:02:23.895Z,75.60
2023-03-20T00:04:52.088Z,66.90
2023-03-20T00:07:19.773Z,64.17
2023-03-20T00:09:47.954Z,60.80
2023-03-20T00:12:20.701Z,61.60
2023-03-20T00:14:48.243Z,65.87
2023-03-20T00:17:20.516Z,67.33
2023-03-20T00:19:48.396Z,61.30
2023-03-20T00:22:15.634Z,61.37
2023-03-20T00:24:43.127Z,69.47
2023-03-20T00:27:15.927Z,68.27
2023-03-20T00:29:44.112Z,71.00
2023-03-20T00:32:15.732Z,67.87
2023-03-20T00:34:43.631Z,70.40
2023-03-20T00:37:13.693Z,68.93
2023-03-20T00:39:41.723Z,73.83
2023-03-20T00:42:20.219Z,75.93
2023-03-20T00:44:54.123Z,74.73
2023-03-20T00:47:25.561Z,75.67
2023-03-20T00:49:54.822Z,91.13
2023-03-20T00:52:23.143Z,91.43
2023-03-20T00:54:52.761Z,87.83
2023-03-20T00:57:47.230Z,110.33
2023-03-20T01:00:23.813Z,115.80
2023-03-20T01:02:56.875Z,102.53
2023-03-20T01:05:26.760Z,121.07
2023-03-20T01:07:55.154Z,118.67
2023-03-20T01:10:29.421Z,113.93
2023-03-20T01:13:00.474Z,109.53
2023-03-20T01:15:32.183Z,107.90
2023-03-20T01:17:59.856Z,105.03
2023-03-20T01:20:29.442Z,93.87
2023-03-20T01:22:56.923Z,93.67
2023-03-20T01:25:24.650Z,92.00
2023-03-20T01:27:54.916Z,84.43
2023-03-20T01:30:26.236Z,74.47
2023-03-20T01:32:54.342Z,74.47
2023-03-20T01:35:26.015Z,83.70
2023-03-20T01:37:54.548Z,80.10
2023-03-20T01:40:49.299Z,82.83
2023-03-20T01:43:19.359Z,82.43
2023-03-20T01:46:22.884Z,76.13
2023-03-20T01:48:52.292Z,79.73
2023-03-20T01:51:23.194Z,76.60
2023-03-20T01:54:16.170Z,76.73
2023-03-20T01:57:05.128Z,94.33
2023-03-20T01:59:37.993Z,94.27
2023-03-20T02:02:07.538Z,121.30
2023-03-20T02:04:39.265Z,91.20
2023-03-20T02:07:12.835Z,91.63
2023-03-20T02:09:58.688Z,108.87
2023-03-20T02:12:38.898Z,102.20
2023-03-20T02:15:08.563Z,94.10
2023-03-20T02:18:00.213Z,98.83
2023-03-20T02:20:27.406Z,102.27
2023-03-20T02:23:24.310Z,94.97
2023-03-20T02:25:53.523Z,84.10
2023-03-20T02:28:28.875Z,91.60
2023-03-20T02:31:11.396Z,89.10
2023-03-20T02:33:44.656Z,97.93
2023-03-20T02:36:33.975Z,108.77
2023-03-20T02:39:37.123Z,106.53
2023-03-20T02:42:18.857Z,94.43
2023-03-20T02:45:08.300Z,80.70
2023-03-20T02:47:52.395Z,89.10
2023-03-20T02:50:38.274Z,83.17
2023-03-20T02:53:30.361Z,81.07
2023-03-20T02:56:09.135Z,78.80
2023-03-20T02:58:51.250Z,79.13
2023-03-20T03:01:28.234Z,82.03
2023-03-20T03:04:23.367Z,70.87
2023-03-20T03:06:56.354Z,77.73
2023-03-20T03:09:32.450Z,78.97
2023-03-20T03:12:20.330Z,78.83
2023-03-20T03:15:04.210Z,72.00
2023-03-20T03:17:34.820Z,73.23
2023-03-20T03:20:09.747Z,69.83
2023-03-20T03:22:37.363Z,69.30
2023-03-20T03:25:06.717Z,69.20
2023-03-20T03:27:41.143Z,67.77
2023-03-20T03:30:12.577Z,75.13
2023-03-20T03:33:06.102Z,73.30
2023-03-20T03:35:33.492Z,70.97
2023-03-20T03:38:10.585Z,71.37
2023-03-20T03:40:44.024Z,71.10
2023-03-20T03:43:31.194Z,66.73
2023-03-20T03:46:04.925Z,65.93
2023-03-20T03:48:40.845Z,67.43
2023-03-20T03:51:21.441Z,65.23
2023-03-20T03:54:20.106Z,70.47
2023-03-20T03:57:07.398Z,70.07
2023-03-20T03:59:40.881Z,68.70
2023-03-20T04:02:09.335Z,67.83
2023-03-20T04:04:43.312Z,64.13
2023-03-20T04:07:10.985Z,64.10
2023-03-20T04:09:38.612Z,65.87
2023-03-20T04:12:06.229Z,64.13
2023-03-20T04:14:33.845Z,99.70
2023-03-20T04:17:01.245Z,91.90
2023-03-20T04:19:29.213Z,68.27
2023-03-20T04:21:56.616Z,70.70
2023-03-20T04:24:24.197Z,64.90
2023-03-20T04:26:51.598Z,68.47
2023-03-20T04:29:19.858Z,67.93
2023-03-20T04:32:02.917Z,70.60
2023-03-20T04:34:46.950Z,63.13
2023-03-20T04:37:46.211Z,60.77
2023-03-20T04:40:14.155Z,74.27
2023-03-20T04:42:43.325Z,68.50
2023-03-20T04:45:12.227Z,66.47
2023-03-20T04:47:40.873Z,69.33
2023-03-20T04:50:09.281Z,66.73
2023-03-20T04:52:37.173Z,69.47
2023-03-20T04:55:05.015Z,67.70
2023-03-20T04:57:33.160Z,64.87
2023-03-20T05:00:00.865Z,61.70
2023-03-20T05:02:28.326Z,74.73
2023-03-20T05:04:56.115Z,72.77
2023-03-20T05:07:23.600Z,78.17
2023-03-20T05:10:11.906Z,71.00
2023-03-20T05:12:47.631Z,69.40
2023-03-20T05:15:33.857Z,66.70
2023-03-20T05:18:21.325Z,72.73
2023-03-20T05:21:11.960Z,75.00
2023-03-20T05:23:54.576Z,70.40
2023-03-20T05:26:30.983Z,72.77
2023-03-20T05:29:17.330Z,67.70
2023-03-20T05:32:16.985Z,80.00
2023-03-20T05:35:19.784Z,75.33
2023-03-20T05:37:52.118Z,73.93
2023-03-20T05:40:28.378Z,63.37
2023-03-20T05:43:12.686Z,75.13
2023-03-20T05:46:02.966Z,76.87
2023-03-20T05:48:33.491Z,74.23
2023-03-20T05:51:27.368Z,82.83
2023-03-20T05:54:07.887Z,78.03
2023-03-20T05:56:53.930Z,83.47
2023-03-20T05:59:29.069Z,89.43
2023-03-20T06:02:19.441Z,85.63
2023-03-20T06:04:56.894Z,97.23
2023-03-20T06:07:28.795Z,91.23
2023-03-20T06:10:01.302Z,84.43
2023-03-20T06:12:29.855Z,91.27
2023-03-20T06:14:57.438Z,96.33
2023-03-20T06:17:25.435Z,84.43
2023-03-20T06:19:59.594Z,88.57
2023-03-20T06:22:26.849Z,85.43
2023-03-20T06:24:56.967Z,77.97
2023-03-20T06:27:31.302Z,77.80
2023-03-20T06:29:59.004Z,70.50
2023-03-20T06:32:31.629Z,76.20
2023-03-20T06:35:01.798Z,78.67
2023-03-20T06:37:29.813Z,74.90
2023-03-20T06:40:12.207Z,70.60
2023-03-20T06:42:39.764Z,67.47
2023-03-20T06:45:08.641Z,71.03
2023-03-20T06:47:51.987Z,69.90
2023-03-20T06:50:19.562Z,72.23
2023-03-20T06:52:47.529Z,84.30
2023-03-20T06:55:37.849Z,80.87
2023-03-20T06:58:05.923Z,80.10
2023-03-20T07:00:34.816Z,75.67
2023-03-20T07:03:05.116Z,78.53
2023-03-20T07:05:32.815Z,72.33
2023-03-20T07:08:02.288Z,76.30
2023-03-20T07:10:30.399Z,79.60
2023-03-20T07:12:57.594Z,79.00
2023-03-20T07:15:25.238Z,73.90
2023-03-20T07:17:53.490Z,85.07
2023-03-20T07:20:21.755Z,85.33
2023-03-20T07:22:50.607Z,81.07
2023-03-20T07:25:41.949Z,88.47
2023-03-20T07:28:11.905Z,91.50
2023-03-20T07:30:43.601Z,91.97
2023-03-20T07:33:11.471Z,92.07
2023-03-20T07:35:40.083Z,90.07
2023-03-20T07:38:10.118Z,80.90
2023-03-20T07:40:49.073Z,72.90
2023-03-20T07:43:17.248Z,69.73
2023-03-20T07:46:07.900Z,62.40
2023-03-20T07:48:37.611Z,64.73
2023-03-20T07:51:06.060Z,63.63
2023-03-20T07:53:33.419Z,55.23
2023-03-20T07:56:01.252Z,53.40
2023-03-20T07:58:28.562Z,47.17
2023-03-20T08:00:58.524Z,50.47
2023-03-20T08:03:26.116Z,68.87
2023-03-20T08:05:54.375Z,66.87
2023-03-20T08:08:22.109Z,61.37
2023-03-20T08:10:50.434Z,48.83
2023-03-20T08:13:17.686Z,48.50
2023-03-20T08:15:47.189Z,43.80
2023-03-20T08:18:14.434Z,52.13
2023-03-20T08:20:41.940Z,47.63
2023-03-20T08:23:09.302Z,48.17
2023-03-20T08:25:37.183Z,51.63
2023-03-20T08:28:04.762Z,52.83
2023-03-20T08:30:32.314Z,56.37
2023-03-20T08:32:59.850Z,57.37
2023-03-20T08:35:33.222Z,53.50
2023-03-20T08:38:01.602Z,53.03
2023-03-20T08:40:29.587Z,53.97
2023-03-20T08:42:56.919Z,52.53
2023-03-20T08:45:27.277Z,44.87
2023-03-20T08:47:55.141Z,41.87
2023-03-20T08:50:23.106Z,38.27
2023-03-20T08:52:50.733Z,37.43
2023-03-20T08:55:18.382Z,32.92
2023-03-20T08:57:46.936Z,31.40
2023-03-20T09:00:16.079Z,36.45
2023-03-20T09:02:43.931Z,29.15
2023-03-20T09:05:11.998Z,37.88
2023-03-20T09:07:39.462Z,32.05
2023-03-20T09:10:08.341Z,34.50
2023-03-20T09:12:36.258Z,31.48
2023-03-20T09:15:05.460Z,27.42
2023-03-20T09:17:33.235Z,30.08
2023-03-20T09:20:00.899Z,31.48
2023-03-20T09:22:28.114Z,32.03
2023-03-20T09:24:55.701Z,31.77
2023-03-20T09:27:23.241Z,32.97
2023-03-20T09:29:50.792Z,35.63
2023-03-20T09:32:18.535Z,30.13
2023-03-20T09:34:46.075Z,35.20
2023-03-20T09:37:13.421Z,31.08
2023-03-20T09:39:40.910Z,30.20
2023-03-20T09:42:43.639Z,37.78
2023-03-20T09:45:13.623Z,32.90
2023-03-20T09:48:19.451Z,36.50
2023-03-20T09:51:06.515Z,36.63
2023-03-20T09:53:44.541Z,41.07
2023-03-20T09:56:21.430Z,43.47
2023-03-20T09:58:57.390Z,45.40
2023-03-20T10:01:30.418Z,36.70
2023-03-20T10:04:07.615Z,41.63
2023-03-20T10:06:36.075Z,44.10
2023-03-20T10:09:13.904Z,41.80
2023-03-20T10:11:50.540Z,40.23
2023-03-20T10:14:32.466Z,38.67
2023-03-20T10:17:12.028Z,40.40
2023-03-20T10:19:53.588Z,38.53
2023-03-20T10:22:26.867Z,40.13
2023-03-20T10:25:37.880Z,36.67
2023-03-20T10:28:11.765Z,29.83
2023-03-20T10:30:48.235Z,30.30
2023-03-20T10:33:27.092Z,29.73
2023-03-20T10:36:18.520Z,28.23
2023-03-20T10:39:04.608Z,24.50
2023-03-20T10:41:38.272Z,30.15
2023-03-20T10:44:10.553Z,24.98
2023-03-20T10:46:44.803Z,23.08
2023-03-20T10:49:34.210Z,25.75
2023-03-20T10:52:12.245Z,23.98
2023-03-20T10:54:44.091Z,24.02
2023-03-20T10:57:34.107Z,21.08
2023-03-20T11:00:01.918Z,24.95
2023-03-20T11:02:30.814Z,55.55
2023-03-20T11:05:25.690Z,22.75
2023-03-20T11:08:06.639Z,20.10
2023-03-20T11:10:36.817Z,18.23
2023-03-20T11:13:30.265Z,17.85
2023-03-20T11:16:14.956Z,18.30
2023-03-20T11:18:42.497Z,17.27
2023-03-20T11:21:23.553Z,16.05
2023-03-20T11:23:51.494Z,13.73
2023-03-20T11:26:42.197Z,14.65
2023-03-20T11:29:22.232Z,19.15
2023-03-20T11:31:50.934Z,15.68
2023-03-20T11:34:18.104Z,12.80
2023-03-20T11:37:08.643Z,15.10
2023-03-20T11:39:38.183Z,11.90
2023-03-20T11:42:23.592Z,13.35
2023-03-20T11:44:59.333Z,16.63
2023-03-20T11:47:28.918Z,15.82
2023-03-20T11:49:58.953Z,18.85
2023-03-20T11:52:33.495Z,16.40
2023-03-20T11:55:03.990Z,22.90
2023-03-20T11:57:33.222Z,16.45
2023-03-20T12:00:36.502Z,15.30
2023-03-20T12:03:04.773Z,19.08
2023-03-20T12:05:37.767Z,18.17
2023-03-20T12:08:17.463Z,16.70
2023-03-20T12:10:51.557Z,19.13
2023-03-20T12:13:26.295Z,18.27
2023-03-20T12:16:04.661Z,26.92
2023-03-20T12:18:38.658Z,20.10
2023-03-20T12:21:30.045Z,16.77
2023-03-20T12:24:01.331Z,24.15
2023-03-20T12:27:13.086Z,31.50
2023-03-20T12:29:53.127Z,74.75
2023-03-20T12:32:24.268Z,42.60
2023-03-20T12:35:11.425Z,77.63
2023-03-20T12:37:38.845Z,58.63
2023-03-20T12:40:12.730Z,31.20
2023-03-20T12:42:58.437Z,24.02
2023-03-20T12:45:33.766Z,20.23
2023-03-20T12:48:31.340Z,25.52
2023-03-20T12:51:36.961Z,19.20
2023-03-20T12:54:13.802Z,19.00
2023-03-20T12:57:18.093Z,13.30
2023-03-20T12:59:51.167Z,16.58
2023-03-20T13:02:37.079Z,15.80
2023-03-20T13:05:05.480Z,15.88
2023-03-20T13:07:33.263Z,16.60
2023-03-20T13:10:38.839Z,15.30
2023-03-20T13:13:31.995Z,17.55
2023-03-20T13:16:20.449Z,15.25
2023-03-20T13:18:55.849Z,11.93
2023-03-20T13:21:41.098Z,16.92
2023-03-20T13:24:41.019Z,14.13
2023-03-20T13:27:29.396Z,19.25
2023-03-20T13:30:05.402Z,15.75
2023-03-20T13:33:03.045Z,16.85
2023-03-20T13:35:56.008Z,12.52
2023-03-20T13:38:35.886Z,17.23
2023-03-20T13:41:09.745Z,16.23
2023-03-20T13:43:47.745Z,15.20
2023-03-20T13:46:26.716Z,11.90
2023-03-20T13:48:56.976Z,6.93
2023-03-20T13:51:30.532Z,8.43
2023-03-20T13:54:04.755Z,7.75
2023-03-20T13:56:59.024Z,11.02
2023-03-20T14:00:05.337Z,10.40
2023-03-20T14:02:50.596Z,8.25
2023-03-20T14:05:23.451Z,9.05
2023-03-20T14:07:57.578Z,8.23
2023-03-20T14:10:25.491Z,7.45
2023-03-20T14:12:56.092Z,7.57
2023-03-20T14:15:28.111Z,9.63
2023-03-20T14:17:55.894Z,13.27
2023-03-20T14:20:33.898Z,9.65
2023-03-20T14:23:02.073Z,9.20
2023-03-20T14:25:41.023Z,15.15
2023-03-20T14:28:28.516Z,17.77
2023-03-20T14:31:20.514Z,14.10
2023-03-20T14:34:15.008Z,9.65
2023-03-20T14:37:02.093Z,9.75
2023-03-20T14:39:54.933Z,10.88
2023-03-20T14:42:31.763Z,9.18
2023-03-20T14:44:59.662Z,6.32
2023-03-20T14:47:39.275Z,10.90
2023-03-20T14:50:12.881Z,10.63
2023-03-20T14:52:58.792Z,5.78
2023-03-20T14:55:30.669Z,10.05
2023-03-20T14:58:02.493Z,22.23
2023-03-20T15:00:36.628Z,8.75
2023-03-20T15:03:11.207Z,6.72
2023-03-20T15:05:40.419Z,8.50
2023-03-20T15:08:23.027Z,10.07
2023-03-20T15:10:57.490Z,10.35
2023-03-20T15:13:26.276Z,16.83
2023-03-20T15:15:56.874Z,13.23
2023-03-20T15:18:26.541Z,9.53
2023-03-20T15:20:57.858Z,12.00
2023-03-20T15:23:26.356Z,15.30
2023-03-20T15:25:54.409Z,25.07
2023-03-20T15:28:22.163Z,35.40
2023-03-20T15:30:53.592Z,65.60
2023-03-20T15:33:26.872Z,46.00
2023-03-20T15:35:54.925Z,43.77
2023-03-20T15:38:22.719Z,31.67
2023-03-20T15:40:51.997Z,37.03
2023-03-20T15:43:27.095Z,38.50
2023-03-20T15:46:16.426Z,37.27
2023-03-20T15:48:49.082Z,32.57
2023-03-20T15:51:18.200Z,43.33
2023-03-20T15:53:48.517Z,58.83
2023-03-20T15:56:19.676Z,46.70
2023-03-20T15:58:50.566Z,62.77
2023-03-20T16:01:23.250Z,42.70
2023-03-20T16:03:52.953Z,34.13
2023-03-20T16:06:24.291Z,33.97
2023-03-20T16:09:00.883Z,53.20
2023-03-20T16:11:48.153Z,52.33
2023-03-20T16:14:22.279Z,48.90
2023-03-20T16:16:53.489Z,34.87
2023-03-20T16:19:21.757Z,45.47
2023-03-20T16:22:15.384Z,46.23
2023-03-20T16:24:46.739Z,83.63
2023-03-20T16:27:24.238Z,67.40
2023-03-20T16:29:53.712Z,48.13
2023-03-20T16:32:40.806Z,41.53
2023-03-20T16:35:20.848Z,50.23
2023-03-20T16:38:00.258Z,60.40
2023-03-20T16:40:37.917Z,51.17
2023-03-20T16:43:18.349Z,43.20
2023-03-20T16:45:50.998Z,54.33
2023-03-20T16:48:32.507Z,66.10
2023-03-20T16:51:24.591Z,86.67
2023-03-20T16:53:56.239Z,75.37
2023-03-20T16:56:32.736Z,69.50
2023-03-20T16:59:10.444Z,68.70
2023-03-20T17:01:43.653Z,42.87
2023-03-20T17:04:28.193Z,53.40
2023-03-20T17:07:00.567Z,48.67
2023-03-20T17:09:31.332Z,55.97
2023-03-20T17:12:26.452Z,63.30
2023-03-20T17:14:54.696Z,77.53
2023-03-20T17:17:22.911Z,72.13
2023-03-20T17:19:52.003Z,64.80
2023-03-20T17:22:22.299Z,70.77
2023-03-20T17:24:50.662Z,71.23
2023-03-20T17:27:19.502Z,66.10
2023-03-20T17:29:51.120Z,67.50
2023-03-20T17:32:24.185Z,58.97
2023-03-20T17:34:52.899Z,53.40
2023-03-20T17:37:29.953Z,50.47
2023-03-20T17:39:58.313Z,51.67
2023-03-20T17:42:31.373Z,78.97
2023-03-20T17:45:01.194Z,84.37
2023-03-20T17:47:29.437Z,73.60
2023-03-20T17:49:58.125Z,59.57
2023-03-20T17:52:27.813Z,58.07
2023-03-20T17:54:56.871Z,52.87
2023-03-20T17:57:38.803Z,41.70
2023-03-20T18:00:19.003Z,57.47
2023-03-20T18:02:47.417Z,67.03
2023-03-20T18:05:17.195Z,101.57
2023-03-20T18:07:47.158Z,74.27
2023-03-20T18:10:47.234Z,75.30
2023-03-20T18:13:19.067Z,75.37
2023-03-20T18:15:49.695Z,71.10
2023-03-20T18:18:20.896Z,65.30
2023-03-20T18:20:51.678Z,70.43
2023-03-20T18:23:21.336Z,65.43
2023-03-20T18:25:51.518Z,66.47
2023-03-20T18:28:23.630Z,58.33
2023-03-20T18:30:53.789Z,67.83
2023-03-20T18:33:28.174Z,56.33
2023-03-20T18:35:57.515Z,50.40
2023-03-20T18:38:27.178Z,46.67
2023-03-20T18:40:57.860Z,50.30
2023-03-20T18:43:27.529Z,47.37
2023-03-20T18:45:57.814Z,46.43
2023-03-20T18:48:26.887Z,48.40
2023-03-20T18:51:01.634Z,43.23
2023-03-20T18:53:31.185Z,41.13
2023-03-20T18:56:00.923Z,43.93
2023-03-20T18:58:31.490Z,53.73
2023-03-20T19:01:01.402Z,47.97
2023-03-20T19:03:30.670Z,38.97
2023-03-20T19:06:01.291Z,40.27
2023-03-20T19:08:30.429Z,50.53
2023-03-20T19:10:59.282Z,49.97
2023-03-20T19:13:28.096Z,40.17
2023-03-20T19:15:56.629Z,46.47
2023-03-20T19:18:27.005Z,45.30
2023-03-20T19:20:57.592Z,40.63
2023-03-20T19:23:29.158Z,39.67
2023-03-20T19:25:58.095Z,45.20
2023-03-20T19:28:39.102Z,43.50
2023-03-20T19:31:10.994Z,41.73
2023-03-20T19:33:41.334Z,42.20
2023-03-20T19:36:24.856Z,45.50
2023-03-20T19:38:53.352Z,47.47
2023-03-20T19:41:22.029Z,50.37
2023-03-20T19:43:55.238Z,52.37
2023-03-20T19:46:42.928Z,54.33
2023-03-20T19:49:20.263Z,51.67
2023-03-20T19:51:49.384Z,47.07
2023-03-20T19:54:18.261Z,49.97
2023-03-20T19:56:46.095Z,47.93
2023-03-20T19:59:16.570Z,46.07
2023-03-20T20:01:45.758Z,46.07
2023-03-20T20:04:14.250Z,47.30
2023-03-20T20:06:42.129Z,45.00
2023-03-20T20:09:10.707Z,36.80
2023-03-20T20:11:38.654Z,29.60
2023-03-20T20:14:10.521Z,29.73
2023-03-20T20:16:43.069Z,27.20
2023-03-20T20:19:11.832Z,26.83
2023-03-20T20:24:28.236Z,23.20
2023-03-20T20:27:15.217Z,30.47
2023-03-20T20:29:49.533Z,25.93
2023-03-20T20:32:17.826Z,21.63
2023-03-20T20:38:30.498Z,26.90
2023-03-20T20:40:26.286Z,69.43
2023-03-20T20:42:56.358Z,29.33
2023-03-20T20:45:26.844Z,21.37
2023-03-20T20:47:54.947Z,22.73
2023-03-20T20:50:25.690Z,17.73
2023-03-20T20:52:53.917Z,20.40
2023-03-20T20:55:24.210Z,21.07
2023-03-20T20:57:55.636Z,16.73
2023-03-20T21:00:41.319Z,24.97
2023-03-20T21:03:14.177Z,21.03
2023-03-20T21:05:43.517Z,14.90
2023-03-20T21:08:12.336Z,26.23
2023-03-20T21:10:40.374Z,23.13
2023-03-20T21:13:08.758Z,43.23
2023-03-20T21:15:37.365Z,30.73
2023-03-20T21:18:05.452Z,24.63
2023-03-20T21:20:37.833Z,27.17
2023-03-20T21:23:05.159Z,25.10
2023-03-20T21:25:40.677Z,30.37
2023-03-20T21:28:10.587Z,20.33
2023-03-20T21:30:44.215Z,23.73
2023-03-20T21:33:24.602Z,17.07
2023-03-20T21:35:53.504Z,25.57
2023-03-20T21:41:10.843Z,18.87
2023-03-20T21:43:39.757Z,22.33
2023-03-20T21:49:49.932Z,24.83
2023-03-20T22:03:04.258Z,17.33
2023-03-20T22:06:43.879Z,19.53
2023-03-20T22:20:29.245Z,34.23
2023-03-20T22:25:59.807Z,28.27
2023-03-20T22:28:49.891Z,35.53
2023-03-20T22:39:55.006Z,26.47
2023-03-20T22:45:00.655Z,32.63
2023-03-20T22:47:30.488Z,18.20
2023-03-20T22:49:57.783Z,8.83
2023-03-20T22:52:38.074Z,13.40
2023-03-20T22:55:12.545Z,9.73
2023-03-20T22:57:52.822Z,12.87
2023-03-20T23:00:27.727Z,8.77
2023-03-20T23:03:06.713Z,9.30
2023-03-20T23:05:41.778Z,9.70
2023-03-20T23:08:11.765Z,9.93
2023-03-20T23:10:44.226Z,8.37
2023-03-20T23:13:12.588Z,8.13
2023-03-20T23:15:39.801Z,8.90
2023-03-20T23:18:07.738Z,7.27
2023-03-20T23:20:35.168Z,8.23
2023-03-20T23:23:02.802Z,8.07
2023-03-20T23:25:38.796Z,6.43
2023-03-20T23:28:08.644Z,5.73
2023-03-20T23:31:07.470Z,5.10
2023-03-20T23:33:24.028Z,4.87
2023-03-20T23:36:01.156Z,5.57
2023-03-20T23:38:36.563Z,5.93
2023-03-20T23:41:03.943Z,4.03
2023-03-20T23:43:31.619Z,5.80
2023-03-20T23:45:58.850Z,5.80
2023-03-20T23:48:26.816Z,6.63
2023-03-20T23:50:53.996Z,5.17
2023-03-20T23:53:21.840Z,6.10
2023-03-20T23:55:51.924Z,4.50
2023-03-20T23:58:20.873Z,5.53
